sensor_id;sensor_type;location;lat;lon;timestamp;P1;durP1;ratioP1;P2;durP2;ratioP2
17987;SDS011;9119;50.932;5.342;2023-04-24T00:00:08;14.07;;;7.50;;
17987;SDS011;9119;50.932;5.342;2023-04-24T00:02:34;11.40;;;7.03;;
17987;SDS011;9119;50.932;5.342;2023-04-24T00:05:04;14.77;;;7.67;;
17987;SDS011;9119;50.932;5.342;2023-04-24T00:07:31;20.07;;;9.07;;
17987;SDS011;9119;50.932;5.342;2023-04-24T00:09:56;21.53;;;9.90;;
17987;SDS011;9119;50.932;5.342;2023-04-24T00:12:22;15.50;;;8.33;;
17987;SDS011;9119;50.932;5.342;2023-04-24T00:14:48;21.67;;;9.43;;
17987;SDS011;9119;50.932;5.342;2023-04-24T00:17:14;18.10;;;9.00;;
17987;SDS011;9119;50.932;5.342;2023-04-24T00:19:40;18.73;;;8.67;;
17987;SDS011;9119;50.932;5.342;2023-04-24T00:22:06;19.57;;;8.73;;
17987;SDS011;9119;50.932;5.342;2023-04-24T00:24:32;22.53;;;9.33;;
17987;SDS011;9119;50.932;5.342;2023-04-24T00:26:58;20.80;;;8.83;;
17987;SDS011;9119;50.932;5.342;2023-04-24T00:29:24;24.50;;;9.93;;
17987;SDS011;9119;50.932;5.342;2023-04-24T00:31:50;17.07;;;9.27;;
17987;SDS011;9119;50.932;5.342;2023-04-24T00:34:15;21.23;;;9.80;;
17987;SDS011;9119;50.932;5.342;2023-04-24T00:36:41;21.90;;;10.60;;
17987;SDS011;9119;50.932;5.342;2023-04-24T00:39:07;21.87;;;10.60;;
17987;SDS011;9119;50.932;5.342;2023-04-24T00:41:33;25.43;;;10.37;;
17987;SDS011;9119;50.932;5.342;2023-04-24T00:43:59;28.30;;;10.30;;
17987;SDS011;9119;50.932;5.342;2023-04-24T00:46:25;24.07;;;11.43;;
17987;SDS011;9119;50.932;5.342;2023-04-24T00:48:50;24.97;;;11.57;;
17987;SDS011;9119;50.932;5.342;2023-04-24T00:51:17;23.10;;;10.63;;
17987;SDS011;9119;50.932;5.342;2023-04-24T00:53:43;25.70;;;12.03;;
17987;SDS011;9119;50.932;5.342;2023-04-24T00:56:08;29.00;;;12.17;;
17987;SDS011;9119;50.932;5.342;2023-04-24T00:58:35;25.37;;;11.87;;
17987;SDS011;9119;50.932;5.342;2023-04-24T01:01:01;24.60;;;12.67;;
17987;SDS011;9119;50.932;5.342;2023-04-24T01:03:29;23.17;;;12.23;;
17987;SDS011;9119;50.932;5.342;2023-04-24T01:05:56;30.50;;;11.00;;
17987;SDS011;9119;50.932;5.342;2023-04-24T01:08:24;28.23;;;11.47;;
17987;SDS011;9119;50.932;5.342;2023-04-24T01:10:52;24.37;;;11.87;;
17987;SDS011;9119;50.932;5.342;2023-04-24T01:13:18;33.03;;;10.80;;
17987;SDS011;9119;50.932;5.342;2023-04-24T01:15:45;29.87;;;12.43;;
17987;SDS011;9119;50.932;5.342;2023-04-24T01:18:11;28.10;;;11.70;;
17987;SDS011;9119;50.932;5.342;2023-04-24T01:20:37;24.23;;;11.40;;
17987;SDS011;9119;50.932;5.342;2023-04-24T01:23:06;26.50;;;11.53;;
17987;SDS011;9119;50.932;5.342;2023-04-24T01:25:32;21.23;;;10.67;;
17987;SDS011;9119;50.932;5.342;2023-04-24T01:27:58;24.90;;;11.73;;
17987;SDS011;9119;50.932;5.342;2023-04-24T01:30:24;31.43;;;12.30;;
17987;SDS011;9119;50.932;5.342;2023-04-24T01:32:51;24.77;;;11.40;;
17987;SDS011;9119;50.932;5.342;2023-04-24T01:35:17;33.50;;;12.50;;
17987;SDS011;9119;50.932;5.342;2023-04-24T01:37:43;28.33;;;10.53;;
17987;SDS011;9119;50.932;5.342;2023-04-24T01:40:09;28.03;;;12.33;;
17987;SDS011;9119;50.932;5.342;2023-04-24T01:42:35;29.53;;;11.87;;
17987;SDS011;9119;50.932;5.342;2023-04-24T01:45:01;31.17;;;12.07;;
17987;SDS011;9119;50.932;5.342;2023-04-24T01:47:29;27.03;;;11.97;;
17987;SDS011;9119;50.932;5.342;2023-04-24T01:49:56;23.23;;;11.10;;
17987;SDS011;9119;50.932;5.342;2023-04-24T01:52:22;27.07;;;11.53;;
17987;SDS011;9119;50.932;5.342;2023-04-24T01:54:48;22.67;;;10.20;;
17987;SDS011;9119;50.932;5.342;2023-04-24T01:57:14;24.50;;;11.77;;
17987;SDS011;9119;50.932;5.342;2023-04-24T01:59:41;26.20;;;12.13;;
17987;SDS011;9119;50.932;5.342;2023-04-24T02:02:07;25.77;;;11.37;;
17987;SDS011;9119;50.932;5.342;2023-04-24T02:04:33;26.67;;;12.47;;
17987;SDS011;9119;50.932;5.342;2023-04-24T02:06:58;27.73;;;11.63;;
17987;SDS011;9119;50.932;5.342;2023-04-24T02:09:24;25.83;;;11.57;;
17987;SDS011;9119;50.932;5.342;2023-04-24T02:11:50;29.17;;;12.83;;
17987;SDS011;9119;50.932;5.342;2023-04-24T02:14:16;23.90;;;12.40;;
17987;SDS011;9119;50.932;5.342;2023-04-24T02:16:41;24.33;;;11.87;;
17987;SDS011;9119;50.932;5.342;2023-04-24T02:19:08;23.27;;;12.23;;
17987;SDS011;9119;50.932;5.342;2023-04-24T02:21:34;29.27;;;13.67;;
17987;SDS011;9119;50.932;5.342;2023-04-24T02:24:00;29.53;;;13.27;;
17987;SDS011;9119;50.932;5.342;2023-04-24T02:26:25;26.57;;;12.50;;
17987;SDS011;9119;50.932;5.342;2023-04-24T02:28:51;24.43;;;12.63;;
17987;SDS011;9119;50.932;5.342;2023-04-24T02:31:17;31.33;;;12.37;;
17987;SDS011;9119;50.932;5.342;2023-04-24T02:33:43;24.87;;;12.70;;
17987;SDS011;9119;50.932;5.342;2023-04-24T02:36:08;25.03;;;12.47;;
17987;SDS011;9119;50.932;5.342;2023-04-24T02:38:34;23.47;;;11.63;;
17987;SDS011;9119;50.932;5.342;2023-04-24T02:41:00;29.47;;;12.57;;
17987;SDS011;9119;50.932;5.342;2023-04-24T02:43:27;22.07;;;11.70;;
17987;SDS011;9119;50.932;5.342;2023-04-24T02:45:53;18.20;;;11.73;;
17987;SDS011;9119;50.932;5.342;2023-04-24T02:48:18;26.63;;;11.67;;
17987;SDS011;9119;50.932;5.342;2023-04-24T02:50:45;24.10;;;10.50;;
17987;SDS011;9119;50.932;5.342;2023-04-24T02:53:11;21.97;;;10.37;;
17987;SDS011;9119;50.932;5.342;2023-04-24T02:55:37;24.87;;;11.07;;
17987;SDS011;9119;50.932;5.342;2023-04-24T02:58:02;27.77;;;14.43;;
17987;SDS011;9119;50.932;5.342;2023-04-24T03:00:28;20.57;;;10.60;;
17987;SDS011;9119;50.932;5.342;2023-04-24T03:02:54;20.07;;;11.20;;
17987;SDS011;9119;50.932;5.342;2023-04-24T03:05:20;21.90;;;10.40;;
17987;SDS011;9119;50.932;5.342;2023-04-24T03:07:47;21.77;;;10.90;;
17987;SDS011;9119;50.932;5.342;2023-04-24T03:10:13;29.70;;;11.70;;
17987;SDS011;9119;50.932;5.342;2023-04-24T03:12:38;21.70;;;10.90;;
17987;SDS011;9119;50.932;5.342;2023-04-24T03:15:04;20.83;;;11.20;;
17987;SDS011;9119;50.932;5.342;2023-04-24T03:17:30;24.00;;;10.97;;
17987;SDS011;9119;50.932;5.342;2023-04-24T03:19:56;21.73;;;11.40;;
17987;SDS011;9119;50.932;5.342;2023-04-24T03:22:22;21.67;;;11.20;;
17987;SDS011;9119;50.932;5.342;2023-04-24T03:24:47;23.50;;;11.90;;
17987;SDS011;9119;50.932;5.342;2023-04-24T03:27:13;25.63;;;11.97;;
17987;SDS011;9119;50.932;5.342;2023-04-24T03:29:39;23.97;;;11.23;;
17987;SDS011;9119;50.932;5.342;2023-04-24T03:32:04;19.57;;;10.47;;
17987;SDS011;9119;50.932;5.342;2023-04-24T03:34:30;20.93;;;10.77;;
17987;SDS011;9119;50.932;5.342;2023-04-24T03:36:55;24.30;;;10.97;;
17987;SDS011;9119;50.932;5.342;2023-04-24T03:39:21;19.77;;;10.97;;
17987;SDS011;9119;50.932;5.342;2023-04-24T03:41:47;29.37;;;11.30;;
17987;SDS011;9119;50.932;5.342;2023-04-24T03:44:12;30.17;;;10.30;;
17987;SDS011;9119;50.932;5.342;2023-04-24T03:46:38;22.80;;;10.47;;
17987;SDS011;9119;50.932;5.342;2023-04-24T03:49:04;22.67;;;10.10;;
17987;SDS011;9119;50.932;5.342;2023-04-24T03:51:29;18.27;;;10.43;;
17987;SDS011;9119;50.932;5.342;2023-04-24T03:53:56;22.60;;;10.90;;
17987;SDS011;9119;50.932;5.342;2023-04-24T03:56:22;19.00;;;9.60;;
17987;SDS011;9119;50.932;5.342;2023-04-24T03:58:47;19.43;;;9.73;;
17987;SDS011;9119;50.932;5.342;2023-04-24T04:01:13;23.03;;;10.30;;
17987;SDS011;9119;50.932;5.342;2023-04-24T04:03:40;20.03;;;9.97;;
17987;SDS011;9119;50.932;5.342;2023-04-24T04:06:06;21.50;;;10.30;;
17987;SDS011;9119;50.932;5.342;2023-04-24T04:08:32;19.33;;;9.60;;
17987;SDS011;9119;50.932;5.342;2023-04-24T04:10:58;18.23;;;10.50;;
17987;SDS011;9119;50.932;5.342;2023-04-24T04:13:23;24.23;;;10.93;;
17987;SDS011;9119;50.932;5.342;2023-04-24T04:15:49;24.60;;;10.60;;
17987;SDS011;9119;50.932;5.342;2023-04-24T04:18:15;24.90;;;10.00;;
17987;SDS011;9119;50.932;5.342;2023-04-24T04:20:41;18.60;;;9.63;;
17987;SDS011;9119;50.932;5.342;2023-04-24T04:23:06;22.10;;;10.37;;
17987;SDS011;9119;50.932;5.342;2023-04-24T04:25:32;21.27;;;9.80;;
17987;SDS011;9119;50.932;5.342;2023-04-24T04:27:58;16.63;;;8.23;;
17987;SDS011;9119;50.932;5.342;2023-04-24T04:30:24;18.87;;;9.53;;
17987;SDS011;9119;50.932;5.342;2023-04-24T04:32:50;18.17;;;9.63;;
17987;SDS011;9119;50.932;5.342;2023-04-24T04:35:16;15.63;;;8.10;;
17987;SDS011;9119;50.932;5.342;2023-04-24T04:37:42;24.53;;;11.10;;
17987;SDS011;9119;50.932;5.342;2023-04-24T04:40:08;17.33;;;8.60;;
17987;SDS011;9119;50.932;5.342;2023-04-24T04:42:36;21.60;;;9.57;;
17987;SDS011;9119;50.932;5.342;2023-04-24T04:45:06;20.93;;;9.43;;
17987;SDS011;9119;50.932;5.342;2023-04-24T04:47:35;18.87;;;9.33;;
17987;SDS011;9119;50.932;5.342;2023-04-24T04:50:01;16.17;;;8.40;;
17987;SDS011;9119;50.932;5.342;2023-04-24T04:52:28;19.57;;;9.07;;
17987;SDS011;9119;50.932;5.342;2023-04-24T04:54:54;15.67;;;9.17;;
17987;SDS011;9119;50.932;5.342;2023-04-24T04:57:20;18.90;;;9.17;;
17987;SDS011;9119;50.932;5.342;2023-04-24T04:59:46;16.17;;;8.77;;
17987;SDS011;9119;50.932;5.342;2023-04-24T05:02:12;19.03;;;9.40;;
17987;SDS011;9119;50.932;5.342;2023-04-24T05:04:37;16.77;;;8.83;;
17987;SDS011;9119;50.932;5.342;2023-04-24T05:07:03;16.43;;;9.00;;
17987;SDS011;9119;50.932;5.342;2023-04-24T05:09:29;19.33;;;8.27;;
17987;SDS011;9119;50.932;5.342;2023-04-24T05:11:55;13.07;;;8.00;;
17987;SDS011;9119;50.932;5.342;2023-04-24T05:14:21;16.47;;;8.10;;
17987;SDS011;9119;50.932;5.342;2023-04-24T05:16:47;21.00;;;8.73;;
17987;SDS011;9119;50.932;5.342;2023-04-24T05:19:12;19.47;;;8.70;;
17987;SDS011;9119;50.932;5.342;2023-04-24T05:21:39;18.03;;;8.40;;
17987;SDS011;9119;50.932;5.342;2023-04-24T05:24:07;15.03;;;8.40;;
17987;SDS011;9119;50.932;5.342;2023-04-24T05:26:33;14.57;;;8.00;;
17987;SDS011;9119;50.932;5.342;2023-04-24T05:28:58;17.97;;;8.37;;
17987;SDS011;9119;50.932;5.342;2023-04-24T05:31:25;17.37;;;7.87;;
17987;SDS011;9119;50.932;5.342;2023-04-24T05:33:50;14.57;;;7.93;;
17987;SDS011;9119;50.932;5.342;2023-04-24T05:36:16;14.80;;;8.60;;
17987;SDS011;9119;50.932;5.342;2023-04-24T05:38:42;14.97;;;8.27;;
17987;SDS011;9119;50.932;5.342;2023-04-24T05:41:07;18.97;;;8.50;;
17987;SDS011;9119;50.932;5.342;2023-04-24T05:43:33;12.53;;;7.03;;
17987;SDS011;9119;50.932;5.342;2023-04-24T05:45:59;16.53;;;8.07;;
17987;SDS011;9119;50.932;5.342;2023-04-24T05:48:25;14.77;;;7.90;;
17987;SDS011;9119;50.932;5.342;2023-04-24T05:50:51;10.77;;;6.77;;
17987;SDS011;9119;50.932;5.342;2023-04-24T05:53:17;8.93;;;6.07;;
17987;SDS011;9119;50.932;5.342;2023-04-24T05:55:43;12.00;;;6.10;;
17987;SDS011;9119;50.932;5.342;2023-04-24T05:58:09;11.60;;;5.87;;
17987;SDS011;9119;50.932;5.342;2023-04-24T06:00:36;13.50;;;6.70;;
17987;SDS011;9119;50.932;5.342;2023-04-24T06:03:01;13.03;;;6.60;;
17987;SDS011;9119;50.932;5.342;2023-04-24T06:05:28;12.67;;;6.87;;
17987;SDS011;9119;50.932;5.342;2023-04-24T06:07:55;10.77;;;5.80;;
17987;SDS011;9119;50.932;5.342;2023-04-24T06:10:21;14.60;;;7.80;;
17987;SDS011;9119;50.932;5.342;2023-04-24T06:12:46;14.50;;;7.37;;
17987;SDS011;9119;50.932;5.342;2023-04-24T06:15:12;15.90;;;8.33;;
17987;SDS011;9119;50.932;5.342;2023-04-24T06:17:38;15.73;;;7.70;;
17987;SDS011;9119;50.932;5.342;2023-04-24T06:20:04;19.70;;;9.00;;
17987;SDS011;9119;50.932;5.342;2023-04-24T06:22:31;16.17;;;8.40;;
17987;SDS011;9119;50.932;5.342;2023-04-24T06:24:57;18.93;;;8.37;;
17987;SDS011;9119;50.932;5.342;2023-04-24T06:27:23;22.00;;;9.63;;
17987;SDS011;9119;50.932;5.342;2023-04-24T06:29:48;25.53;;;9.27;;
17987;SDS011;9119;50.932;5.342;2023-04-24T06:32:20;19.10;;;8.87;;
17987;SDS011;9119;50.932;5.342;2023-04-24T06:34:47;16.03;;;8.20;;
17987;SDS011;9119;50.932;5.342;2023-04-24T06:37:13;15.03;;;7.67;;
17987;SDS011;9119;50.932;5.342;2023-04-24T06:39:40;16.87;;;8.00;;
17987;SDS011;9119;50.932;5.342;2023-04-24T06:42:06;12.23;;;7.10;;
17987;SDS011;9119;50.932;5.342;2023-04-24T06:44:33;14.83;;;8.33;;
17987;SDS011;9119;50.932;5.342;2023-04-24T06:47:02;19.07;;;8.00;;
17987;SDS011;9119;50.932;5.342;2023-04-24T06:49:28;15.70;;;7.93;;
17987;SDS011;9119;50.932;5.342;2023-04-24T06:51:54;17.97;;;8.10;;
17987;SDS011;9119;50.932;5.342;2023-04-24T06:54:19;18.97;;;9.00;;
17987;SDS011;9119;50.932;5.342;2023-04-24T06:56:45;15.57;;;8.43;;
17987;SDS011;9119;50.932;5.342;2023-04-24T06:59:12;22.87;;;9.47;;
17987;SDS011;9119;50.932;5.342;2023-04-24T07:01:38;19.17;;;8.87;;
17987;SDS011;9119;50.932;5.342;2023-04-24T07:04:04;17.00;;;8.83;;
17987;SDS011;9119;50.932;5.342;2023-04-24T07:06:29;18.37;;;9.47;;
17987;SDS011;9119;50.932;5.342;2023-04-24T07:08:55;22.40;;;9.93;;
17987;SDS011;9119;50.932;5.342;2023-04-24T07:11:21;19.87;;;9.40;;
17987;SDS011;9119;50.932;5.342;2023-04-24T07:13:47;24.60;;;9.87;;
17987;SDS011;9119;50.932;5.342;2023-04-24T07:16:12;24.13;;;10.03;;
17987;SDS011;9119;50.932;5.342;2023-04-24T07:18:38;26.97;;;11.87;;
17987;SDS011;9119;50.932;5.342;2023-04-24T07:21:04;23.67;;;11.23;;
17987;SDS011;9119;50.932;5.342;2023-04-24T07:23:31;23.07;;;11.37;;
17987;SDS011;9119;50.932;5.342;2023-04-24T07:25:57;24.70;;;11.83;;
17987;SDS011;9119;50.932;5.342;2023-04-24T07:28:22;24.50;;;11.00;;
17987;SDS011;9119;50.932;5.342;2023-04-24T07:30:48;20.00;;;10.73;;
17987;SDS011;9119;50.932;5.342;2023-04-24T07:33:14;21.43;;;11.33;;
17987;SDS011;9119;50.932;5.342;2023-04-24T07:35:39;21.67;;;11.87;;
17987;SDS011;9119;50.932;5.342;2023-04-24T07:38:05;22.20;;;11.50;;
17987;SDS011;9119;50.932;5.342;2023-04-24T07:40:31;23.13;;;11.57;;
17987;SDS011;9119;50.932;5.342;2023-04-24T07:42:56;24.87;;;11.13;;
17987;SDS011;9119;50.932;5.342;2023-04-24T07:45:22;24.80;;;12.83;;
17987;SDS011;9119;50.932;5.342;2023-04-24T07:47:49;27.03;;;11.20;;
17987;SDS011;9119;50.932;5.342;2023-04-24T07:50:15;25.40;;;12.63;;
17987;SDS011;9119;50.932;5.342;2023-04-24T07:52:41;28.73;;;11.97;;
17987;SDS011;9119;50.932;5.342;2023-04-24T07:55:07;21.97;;;10.97;;
17987;SDS011;9119;50.932;5.342;2023-04-24T07:57:33;30.37;;;12.63;;
17987;SDS011;9119;50.932;5.342;2023-04-24T07:59:59;28.33;;;13.80;;
17987;SDS011;9119;50.932;5.342;2023-04-24T08:02:24;28.17;;;13.80;;
17987;SDS011;9119;50.932;5.342;2023-04-24T08:04:54;34.70;;;15.47;;
17987;SDS011;9119;50.932;5.342;2023-04-24T08:07:20;36.60;;;17.27;;
17987;SDS011;9119;50.932;5.342;2023-04-24T08:09:45;38.10;;;15.77;;
17987;SDS011;9119;50.932;5.342;2023-04-24T08:12:11;30.63;;;14.43;;
17987;SDS011;9119;50.932;5.342;2023-04-24T08:14:37;32.37;;;15.53;;
17987;SDS011;9119;50.932;5.342;2023-04-24T08:17:02;32.93;;;16.07;;
17987;SDS011;9119;50.932;5.342;2023-04-24T08:19:28;31.20;;;14.67;;
17987;SDS011;9119;50.932;5.342;2023-04-24T08:21:54;28.47;;;13.07;;
17987;SDS011;9119;50.932;5.342;2023-04-24T08:24:20;25.03;;;12.70;;
17987;SDS011;9119;50.932;5.342;2023-04-24T08:26:46;31.50;;;12.53;;
17987;SDS011;9119;50.932;5.342;2023-04-24T08:29:15;26.17;;;12.10;;
17987;SDS011;9119;50.932;5.342;2023-04-24T08:31:41;20.20;;;11.50;;
17987;SDS011;9119;50.932;5.342;2023-04-24T08:34:06;25.83;;;10.77;;
17987;SDS011;9119;50.932;5.342;2023-04-24T08:36:32;26.40;;;11.07;;
17987;SDS011;9119;50.932;5.342;2023-04-24T08:38:58;26.63;;;11.17;;
17987;SDS011;9119;50.932;5.342;2023-04-24T08:41:24;23.53;;;10.77;;
17987;SDS011;9119;50.932;5.342;2023-04-24T08:43:51;23.50;;;10.30;;
17987;SDS011;9119;50.932;5.342;2023-04-24T08:46:17;22.90;;;9.20;;
17987;SDS011;9119;50.932;5.342;2023-04-24T08:48:44;20.87;;;9.47;;
17987;SDS011;9119;50.932;5.342;2023-04-24T08:51:10;22.63;;;8.50;;
17987;SDS011;9119;50.932;5.342;2023-04-24T08:53:36;20.63;;;8.60;;
17987;SDS011;9119;50.932;5.342;2023-04-24T08:56:02;22.53;;;8.67;;
17987;SDS011;9119;50.932;5.342;2023-04-24T08:58:28;21.23;;;7.83;;
17987;SDS011;9119;50.932;5.342;2023-04-24T09:00:56;17.17;;;8.03;;
17987;SDS011;9119;50.932;5.342;2023-04-24T09:03:23;23.23;;;7.70;;
17987;SDS011;9119;50.932;5.342;2023-04-24T09:05:49;19.03;;;7.83;;
17987;SDS011;9119;50.932;5.342;2023-04-24T09:08:18;21.80;;;6.27;;
17987;SDS011;9119;50.932;5.342;2023-04-24T09:10:44;24.30;;;6.40;;
17987;SDS011;9119;50.932;5.342;2023-04-24T09:13:11;15.63;;;6.50;;
17987;SDS011;9119;50.932;5.342;2023-04-24T09:15:39;20.60;;;6.63;;
17987;SDS011;9119;50.932;5.342;2023-04-24T09:18:06;21.37;;;6.73;;
17987;SDS011;9119;50.932;5.342;2023-04-24T09:20:31;22.47;;;7.03;;
17987;SDS011;9119;50.932;5.342;2023-04-24T09:22:58;17.90;;;6.07;;
17987;SDS011;9119;50.932;5.342;2023-04-24T09:25:31;16.57;;;7.07;;
17987;SDS011;9119;50.932;5.342;2023-04-24T09:28:01;20.80;;;6.97;;
17987;SDS011;9119;50.932;5.342;2023-04-24T09:30:28;17.30;;;7.43;;
17987;SDS011;9119;50.932;5.342;2023-04-24T09:33:13;22.50;;;6.93;;
17987;SDS011;9119;50.932;5.342;2023-04-24T09:35:40;17.40;;;6.43;;
17987;SDS011;9119;50.932;5.342;2023-04-24T09:38:08;21.37;;;7.53;;
17987;SDS011;9119;50.932;5.342;2023-04-24T09:40:34;17.47;;;7.50;;
17987;SDS011;9119;50.932;5.342;2023-04-24T09:43:00;16.43;;;7.10;;
17987;SDS011;9119;50.932;5.342;2023-04-24T09:45:28;21.33;;;8.23;;
17987;SDS011;9119;50.932;5.342;2023-04-24T09:48:04;25.03;;;8.33;;
17987;SDS011;9119;50.932;5.342;2023-04-24T09:50:31;19.93;;;8.87;;
17987;SDS011;9119;50.932;5.342;2023-04-24T09:53:01;18.13;;;8.13;;
17987;SDS011;9119;50.932;5.342;2023-04-24T09:55:28;20.63;;;8.40;;
17987;SDS011;9119;50.932;5.342;2023-04-24T09:57:55;21.20;;;9.50;;
17987;SDS011;9119;50.932;5.342;2023-04-24T10:02:50;28.00;;;9.07;;
17987;SDS011;9119;50.932;5.342;2023-04-24T10:05:22;24.93;;;8.50;;
17987;SDS011;9119;50.932;5.342;2023-04-24T10:07:48;25.23;;;9.23;;
17987;SDS011;9119;50.932;5.342;2023-04-24T10:10:14;21.90;;;8.33;;
17987;SDS011;9119;50.932;5.342;2023-04-24T10:12:40;22.80;;;9.67;;
17987;SDS011;9119;50.932;5.342;2023-04-24T10:15:07;19.63;;;7.27;;
17987;SDS011;9119;50.932;5.342;2023-04-24T10:17:35;19.33;;;5.60;;
17987;SDS011;9119;50.932;5.342;2023-04-24T10:20:01;16.30;;;6.60;;
17987;SDS011;9119;50.932;5.342;2023-04-24T10:22:27;19.33;;;7.20;;
17987;SDS011;9119;50.932;5.342;2023-04-24T10:24:55;17.90;;;6.87;;
17987;SDS011;9119;50.932;5.342;2023-04-24T10:27:21;17.90;;;7.00;;
17987;SDS011;9119;50.932;5.342;2023-04-24T10:29:49;17.37;;;6.53;;
17987;SDS011;9119;50.932;5.342;2023-04-24T10:32:18;21.00;;;6.70;;
17987;SDS011;9119;50.932;5.342;2023-04-24T10:34:43;26.07;;;7.70;;
17987;SDS011;9119;50.932;5.342;2023-04-24T10:37:10;18.63;;;8.87;;
17987;SDS011;9119;50.932;5.342;2023-04-24T10:39:36;21.97;;;7.83;;
17987;SDS011;9119;50.932;5.342;2023-04-24T10:42:12;18.23;;;7.83;;
17987;SDS011;9119;50.932;5.342;2023-04-24T10:44:40;30.50;;;8.30;;
17987;SDS011;9119;50.932;5.342;2023-04-24T10:47:06;22.07;;;8.43;;
17987;SDS011;9119;50.932;5.342;2023-04-24T10:49:38;16.73;;;8.03;;
17987;SDS011;9119;50.932;5.342;2023-04-24T10:52:04;27.00;;;8.07;;
17987;SDS011;9119;50.932;5.342;2023-04-24T10:54:45;18.27;;;6.77;;
17987;SDS011;9119;50.932;5.342;2023-04-24T10:59:50;16.33;;;6.67;;
17987;SDS011;9119;50.932;5.342;2023-04-24T11:02:37;26.23;;;7.60;;
17987;SDS011;9119;50.932;5.342;2023-04-24T11:05:04;16.97;;;7.53;;
17987;SDS011;9119;50.932;5.342;2023-04-24T11:07:40;14.83;;;6.90;;
17987;SDS011;9119;50.932;5.342;2023-04-24T11:10:37;24.90;;;8.63;;
17987;SDS011;9119;50.932;5.342;2023-04-24T11:13:21;21.50;;;8.63;;
17987;SDS011;9119;50.932;5.342;2023-04-24T11:18:59;23.00;;;9.27;;
17987;SDS011;9119;50.932;5.342;2023-04-24T11:26:58;20.30;;;7.27;;
17987;SDS011;9119;50.932;5.342;2023-04-24T11:29:40;14.60;;;5.53;;
17987;SDS011;9119;50.932;5.342;2023-04-24T11:32:15;16.97;;;5.17;;
17987;SDS011;9119;50.932;5.342;2023-04-24T11:34:47;11.57;;;5.03;;
17987;SDS011;9119;50.932;5.342;2023-04-24T11:37:14;12.47;;;5.93;;
17987;SDS011;9119;50.932;5.342;2023-04-24T11:39:40;12.90;;;5.37;;
17987;SDS011;9119;50.932;5.342;2023-04-24T11:42:06;14.47;;;5.97;;
17987;SDS011;9119;50.932;5.342;2023-04-24T11:44:36;13.63;;;5.33;;
17987;SDS011;9119;50.932;5.342;2023-04-24T11:47:05;12.90;;;6.00;;
17987;SDS011;9119;50.932;5.342;2023-04-24T11:49:32;15.43;;;5.17;;
17987;SDS011;9119;50.932;5.342;2023-04-24T11:51:59;12.70;;;5.00;;
17987;SDS011;9119;50.932;5.342;2023-04-24T11:54:26;14.77;;;5.47;;
17987;SDS011;9119;50.932;5.342;2023-04-24T11:56:52;16.47;;;5.73;;
17987;SDS011;9119;50.932;5.342;2023-04-24T11:59:17;16.00;;;6.33;;
17987;SDS011;9119;50.932;5.342;2023-04-24T12:01:46;14.93;;;6.20;;
17987;SDS011;9119;50.932;5.342;2023-04-24T12:04:14;11.87;;;5.40;;
17987;SDS011;9119;50.932;5.342;2023-04-24T12:07:00;12.83;;;5.70;;
17987;SDS011;9119;50.932;5.342;2023-04-24T12:09:55;10.33;;;5.10;;
17987;SDS011;9119;50.932;5.342;2023-04-24T12:12:24;17.53;;;5.53;;
17987;SDS011;9119;50.932;5.342;2023-04-24T12:14:57;12.03;;;4.53;;
17987;SDS011;9119;50.932;5.342;2023-04-24T12:17:28;12.97;;;4.33;;
17987;SDS011;9119;50.932;5.342;2023-04-24T12:20:05;10.23;;;3.87;;
17987;SDS011;9119;50.932;5.342;2023-04-24T12:22:51;9.00;;;3.57;;
17987;SDS011;9119;50.932;5.342;2023-04-24T12:25:22;12.53;;;3.60;;
17987;SDS011;9119;50.932;5.342;2023-04-24T12:30:32;9.37;;;3.63;;
17987;SDS011;9119;50.932;5.342;2023-04-24T12:32:59;9.90;;;3.90;;
17987;SDS011;9119;50.932;5.342;2023-04-24T12:35:29;10.93;;;4.20;;
17987;SDS011;9119;50.932;5.342;2023-04-24T12:38:10;8.23;;;3.97;;
17987;SDS011;9119;50.932;5.342;2023-04-24T12:40:41;9.87;;;3.87;;
17987;SDS011;9119;50.932;5.342;2023-04-24T12:43:18;10.53;;;4.70;;
17987;SDS011;9119;50.932;5.342;2023-04-24T12:45:45;11.97;;;4.77;;
17987;SDS011;9119;50.932;5.342;2023-04-24T12:48:14;12.67;;;4.67;;
17987;SDS011;9119;50.932;5.342;2023-04-24T12:50:40;13.93;;;4.63;;
17987;SDS011;9119;50.932;5.342;2023-04-24T12:53:07;9.83;;;5.13;;
17987;SDS011;9119;50.932;5.342;2023-04-24T12:55:33;12.37;;;4.63;;
17987;SDS011;9119;50.932;5.342;2023-04-24T12:57:59;9.83;;;4.17;;
17987;SDS011;9119;50.932;5.342;2023-04-24T13:00:25;12.70;;;4.27;;
17987;SDS011;9119;50.932;5.342;2023-04-24T13:02:51;10.93;;;4.37;;
17987;SDS011;9119;50.932;5.342;2023-04-24T13:05:17;14.17;;;4.00;;
17987;SDS011;9119;50.932;5.342;2023-04-24T13:07:42;16.03;;;4.70;;
17987;SDS011;9119;50.932;5.342;2023-04-24T13:10:08;12.33;;;4.50;;
17987;SDS011;9119;50.932;5.342;2023-04-24T13:12:34;10.13;;;4.33;;
17987;SDS011;9119;50.932;5.342;2023-04-24T13:15:00;11.83;;;4.77;;
17987;SDS011;9119;50.932;5.342;2023-04-24T13:17:26;10.03;;;4.53;;
17987;SDS011;9119;50.932;5.342;2023-04-24T13:19:54;11.57;;;4.37;;
17987;SDS011;9119;50.932;5.342;2023-04-24T13:22:20;10.40;;;4.53;;
17987;SDS011;9119;50.932;5.342;2023-04-24T13:24:45;9.87;;;4.60;;
17987;SDS011;9119;50.932;5.342;2023-04-24T13:27:13;14.17;;;4.60;;
17987;SDS011;9119;50.932;5.342;2023-04-24T13:29:39;10.33;;;3.87;;
17987;SDS011;9119;50.932;5.342;2023-04-24T13:32:05;12.60;;;4.67;;
17987;SDS011;9119;50.932;5.342;2023-04-24T13:34:31;12.03;;;3.87;;
17987;SDS011;9119;50.932;5.342;2023-04-24T13:36:57;6.07;;;3.43;;
17987;SDS011;9119;50.932;5.342;2023-04-24T13:39:24;11.50;;;4.70;;
17987;SDS011;9119;50.932;5.342;2023-04-24T13:41:50;12.40;;;4.73;;
17987;SDS011;9119;50.932;5.342;2023-04-24T13:44:17;12.30;;;4.93;;
17987;SDS011;9119;50.932;5.342;2023-04-24T13:46:45;15.50;;;5.40;;
17987;SDS011;9119;50.932;5.342;2023-04-24T13:49:14;9.90;;;4.30;;
17987;SDS011;9119;50.932;5.342;2023-04-24T13:51:41;8.97;;;4.47;;
17987;SDS011;9119;50.932;5.342;2023-04-24T13:54:07;11.73;;;4.60;;
17987;SDS011;9119;50.932;5.342;2023-04-24T13:56:33;10.73;;;4.97;;
17987;SDS011;9119;50.932;5.342;2023-04-24T13:58:59;10.20;;;4.67;;
17987;SDS011;9119;50.932;5.342;2023-04-24T14:01:25;13.30;;;4.87;;
17987;SDS011;9119;50.932;5.342;2023-04-24T14:03:51;11.37;;;4.33;;
17987;SDS011;9119;50.932;5.342;2023-04-24T14:06:18;9.83;;;4.10;;
17987;SDS011;9119;50.932;5.342;2023-04-24T14:08:44;12.37;;;5.40;;
17987;SDS011;9119;50.932;5.342;2023-04-24T14:11:10;8.87;;;4.50;;
17987;SDS011;9119;50.932;5.342;2023-04-24T14:13:36;7.47;;;4.60;;
17987;SDS011;9119;50.932;5.342;2023-04-24T14:16:03;12.53;;;4.23;;
17987;SDS011;9119;50.932;5.342;2023-04-24T14:18:29;11.70;;;4.43;;
17987;SDS011;9119;50.932;5.342;2023-04-24T14:20:55;11.70;;;4.13;;
17987;SDS011;9119;50.932;5.342;2023-04-24T14:23:21;9.40;;;3.70;;
17987;SDS011;9119;50.932;5.342;2023-04-24T14:25:46;9.53;;;4.00;;
17987;SDS011;9119;50.932;5.342;2023-04-24T14:28:15;8.70;;;4.03;;
17987;SDS011;9119;50.932;5.342;2023-04-24T14:30:42;8.57;;;3.60;;
17987;SDS011;9119;50.932;5.342;2023-04-24T14:33:09;12.80;;;4.20;;
17987;SDS011;9119;50.932;5.342;2023-04-24T14:35:39;8.87;;;4.03;;
17987;SDS011;9119;50.932;5.342;2023-04-24T14:38:07;8.30;;;4.40;;
17987;SDS011;9119;50.932;5.342;2023-04-24T14:40:32;10.50;;;3.63;;
17987;SDS011;9119;50.932;5.342;2023-04-24T14:42:58;13.70;;;4.30;;
17987;SDS011;9119;50.932;5.342;2023-04-24T14:45:24;8.47;;;4.03;;
17987;SDS011;9119;50.932;5.342;2023-04-24T14:47:50;8.37;;;3.60;;
17987;SDS011;9119;50.932;5.342;2023-04-24T14:50:16;12.97;;;4.30;;
17987;SDS011;9119;50.932;5.342;2023-04-24T14:52:42;12.80;;;4.63;;
17987;SDS011;9119;50.932;5.342;2023-04-24T14:55:08;10.47;;;4.43;;
17987;SDS011;9119;50.932;5.342;2023-04-24T14:57:35;9.27;;;3.73;;